createdAt,value
2023-03-25T00:00:45.008Z,100.00
2023-03-25T00:03:17.966Z,100.00
2023-03-25T00:05:50.352Z,100.00
2023-03-25T00:08:25.229Z,100.00
2023-03-25T00:11:00.444Z,100.00
2023-03-25T00:13:32.693Z,100.00
2023-03-25T00:16:07.320Z,100.00
2023-03-25T00:18:40.136Z,99.75
2023-03-25T00:21:12.236Z,99.22
2023-03-25T00:23:44.451Z,99.38
2023-03-25T00:26:16.658Z,98.92
2023-03-25T00:28:48.712Z,99.47
2023-03-25T00:31:20.845Z,99.48
2023-03-25T00:33:52.926Z,99.12
2023-03-25T00:36:25.000Z,98.83
2023-03-25T00:38:57.085Z,98.34
2023-03-25T00:41:29.163Z,98.06
2023-03-25T00:44:01.796Z,97.13
2023-03-25T00:46:34.650Z,96.48
2023-03-25T00:49:07.474Z,96.38
2023-03-25T00:51:52.917Z,95.80
2023-03-25T00:54:26.042Z,96.01
2023-03-25T00:56:58.132Z,96.16
2023-03-25T00:59:30.288Z,96.34
2023-03-25T01:02:03.113Z,95.63
2023-03-25T01:04:41.532Z,95.73
2023-03-25T01:07:16.671Z,94.60
2023-03-25T01:09:49.003Z,95.01
2023-03-25T01:12:21.188Z,94.24
2023-03-25T01:14:54.274Z,94.15
2023-03-25T01:17:26.494Z,93.69
2023-03-25T01:19:58.531Z,93.22
2023-03-25T01:22:30.599Z,93.34
2023-03-25T01:25:02.664Z,94.00
2023-03-25T01:27:34.759Z,93.51
2023-03-25T01:30:08.227Z,92.94
2023-03-25T01:32:40.329Z,93.81
2023-03-25T01:35:12.584Z,93.03
2023-03-25T01:37:44.826Z,92.70
2023-03-25T01:40:23.735Z,91.99
2023-03-25T01:42:56.078Z,91.85
2023-03-25T01:45:34.832Z,92.23
2023-03-25T01:48:13.282Z,91.78
2023-03-25T01:50:53.764Z,91.10
2023-03-25T01:53:30.410Z,90.94
2023-03-25T01:56:05.752Z,91.07
2023-03-25T01:58:38.435Z,91.01
2023-03-25T02:01:13.831Z,91.50
2023-03-25T02:03:46.464Z,91.48
2023-03-25T02:06:32.061Z,91.17
2023-03-25T02:09:09.412Z,90.69
2023-03-25T02:11:41.493Z,91.09
2023-03-25T02:14:19.653Z,91.17
2023-03-25T02:17:22.323Z,89.88
2023-03-25T02:20:09.455Z,89.73
2023-03-25T02:23:09.872Z,90.31
2023-03-25T02:26:09.657Z,90.28
2023-03-25T02:29:15.688Z,90.16
2023-03-25T02:32:18.602Z,90.09
2023-03-25T02:35:26.777Z,89.06
2023-03-25T02:38:43.449Z,89.77
2023-03-25T02:41:43.471Z,89.56
2023-03-25T02:44:24.182Z,89.77
2023-03-25T02:47:02.418Z,89.06
2023-03-25T02:49:53.506Z,89.51
2023-03-25T02:52:31.577Z,89.74
2023-03-25T02:55:10.571Z,89.84
2023-03-25T02:57:46.904Z,89.31
2023-03-25T03:00:26.955Z,88.69
2023-03-25T03:03:02.686Z,89.27
2023-03-25T03:05:39.595Z,89.41
2023-03-25T03:08:42.312Z,91.04
2023-03-25T03:12:02.377Z,94.18
2023-03-25T03:14:53.017Z,94.83
2023-03-25T03:18:10.280Z,94.95
2023-03-25T03:20:57.132Z,94.21
2023-03-25T03:23:41.505Z,93.16
2023-03-25T03:26:43.533Z,92.82
2023-03-25T03:29:34.141Z,92.13
2023-03-25T03:32:49.994Z,90.94
2023-03-25T03:35:34.151Z,90.19
2023-03-25T03:38:14.787Z,90.38
2023-03-25T03:40:53.813Z,90.30
2023-03-25T03:43:32.056Z,89.92
2023-03-25T03:46:13.549Z,90.35
2023-03-25T03:48:52.235Z,90.01
2023-03-25T03:51:32.597Z,89.58
2023-03-25T03:54:18.523Z,89.92
2023-03-25T03:57:02.813Z,89.86
2023-03-25T04:00:06.943Z,90.81
2023-03-25T04:02:52.362Z,90.79
2023-03-25T04:05:31.015Z,92.35
2023-03-25T04:08:24.230Z,92.46
2023-03-25T04:11:12.494Z,92.89
2023-03-25T04:13:46.877Z,93.67
2023-03-25T04:16:19.011Z,94.87
2023-03-25T04:18:53.785Z,95.66
2023-03-25T04:21:26.061Z,96.11
2023-03-25T04:24:01.643Z,96.88
2023-03-25T04:26:37.862Z,97.61
2023-03-25T04:29:10.252Z,98.79
2023-03-25T04:31:46.574Z,99.82
2023-03-25T04:34:20.769Z,100.00
2023-03-25T04:36:54.894Z,100.00
2023-03-25T04:39:29.954Z,100.00
2023-03-25T04:42:03.371Z,100.00
2023-03-25T04:44:39.392Z,100.00
2023-03-25T04:47:16.437Z,100.00
2023-03-25T04:49:48.482Z,100.00
2023-03-25T04:52:20.546Z,100.00
2023-03-25T04:54:52.602Z,100.00
2023-03-25T04:57:26.711Z,100.00
2023-03-25T04:59:58.830Z,100.00
2023-03-25T05:02:31.261Z,100.00
2023-03-25T05:05:04.962Z,100.00
2023-03-25T05:07:37.010Z,100.00
2023-03-25T05:10:11.363Z,99.34
2023-03-25T05:12:43.471Z,98.94
2023-03-25T05:15:19.966Z,99.26
2023-03-25T05:17:52.377Z,98.45
2023-03-25T05:20:24.983Z,97.62
2023-03-25T05:22:57.737Z,96.74
2023-03-25T05:25:34.514Z,96.56
2023-03-25T05:28:09.968Z,96.45
2023-03-25T05:30:46.192Z,96.24
2023-03-25T05:33:19.132Z,95.62
2023-03-25T05:35:51.524Z,95.07
2023-03-25T05:38:23.686Z,94.42
2023-03-25T05:40:56.728Z,94.56
2023-03-25T05:43:28.984Z,95.30
2023-03-25T05:46:01.049Z,96.43
2023-03-25T05:48:33.293Z,96.54
2023-03-25T05:51:13.699Z,95.15
2023-03-25T05:53:50.239Z,95.57
2023-03-25T05:56:24.434Z,95.22
2023-03-25T05:58:57.762Z,94.69
2023-03-25T06:01:33.832Z,94.02
2023-03-25T06:04:10.506Z,94.46
2023-03-25T06:06:42.815Z,94.53
2023-03-25T06:09:14.925Z,94.59
2023-03-25T06:11:53.512Z,94.50
2023-03-25T06:14:25.818Z,93.96
2023-03-25T06:16:57.929Z,93.68
2023-03-25T06:19:30.006Z,92.95
2023-03-25T06:22:02.084Z,92.82
2023-03-25T06:24:34.122Z,93.69
2023-03-25T06:27:12.437Z,94.55
2023-03-25T06:29:45.780Z,94.50
2023-03-25T06:32:17.885Z,94.73
2023-03-25T06:34:49.916Z,94.72
2023-03-25T06:37:22.176Z,94.93
2023-03-25T06:39:56.819Z,94.89
2023-03-25T06:42:29.611Z,93.77
2023-03-25T06:45:05.115Z,93.91
2023-03-25T06:47:37.333Z,92.13
2023-03-25T06:50:09.997Z,91.29
2023-03-25T06:52:42.090Z,89.95
2023-03-25T06:55:14.229Z,88.48
2023-03-25T06:57:46.282Z,88.76
2023-03-25T07:00:20.570Z,88.25
2023-03-25T07:02:52.714Z,87.67
2023-03-25T07:05:26.243Z,87.71
2023-03-25T07:07:59.309Z,87.08
2023-03-25T07:10:32.461Z,86.12
2023-03-25T07:13:04.631Z,86.03
2023-03-25T07:15:36.663Z,85.67
2023-03-25T07:18:08.719Z,86.17
2023-03-25T07:20:46.158Z,85.72
2023-03-25T07:23:18.719Z,84.60
2023-03-25T07:25:51.163Z,84.98
2023-03-25T07:28:23.657Z,86.19
2023-03-25T07:30:55.929Z,86.69
2023-03-25T07:33:28.106Z,88.35
2023-03-25T07:36:00.209Z,87.71
2023-03-25T07:38:32.693Z,88.50
2023-03-25T07:41:13.289Z,90.13
2023-03-25T07:43:46.299Z,91.73
2023-03-25T07:46:18.459Z,92.78
2023-03-25T07:48:50.659Z,92.80
2023-03-25T07:51:22.816Z,93.28
2023-03-25T07:53:55.084Z,92.18
2023-03-25T07:56:37.418Z,92.44
2023-03-25T07:59:09.814Z,92.89
2023-03-25T08:01:41.891Z,93.73
2023-03-25T08:04:14.068Z,95.79
2023-03-25T08:06:46.229Z,96.07
2023-03-25T08:09:18.261Z,98.13
2023-03-25T08:11:51.539Z,100.00
2023-03-25T08:14:23.751Z,100.00
2023-03-25T08:16:55.836Z,100.00
2023-03-25T08:19:28.028Z,100.00
2023-03-25T08:22:00.878Z,100.00
2023-03-25T08:24:33.093Z,100.00
2023-03-25T08:27:13.741Z,100.00
2023-03-25T08:29:54.564Z,100.00
2023-03-25T08:32:28.384Z,100.00
2023-03-25T08:35:00.470Z,100.00
2023-03-25T08:37:35.475Z,100.00
2023-03-25T08:40:11.022Z,100.00
2023-03-25T08:42:43.635Z,100.00
2023-03-25T08:45:15.808Z,100.00
2023-03-25T08:47:47.919Z,100.00
2023-03-25T08:50:20.028Z,100.00
2023-03-25T08:52:53.690Z,100.00
2023-03-25T08:55:26.207Z,98.55
2023-03-25T08:58:03.305Z,93.81
2023-03-25T09:00:37.959Z,89.50
2023-03-25T09:03:10.256Z,83.44
2023-03-25T09:05:42.396Z,73.47
2023-03-25T09:08:14.986Z,71.75
2023-03-25T09:10:47.131Z,75.14
2023-03-25T09:13:19.180Z,79.59
2023-03-25T09:15:51.518Z,80.23
2023-03-25T09:18:23.752Z,85.15
2023-03-25T09:21:00.203Z,82.52
2023-03-25T09:23:32.366Z,82.49
2023-03-25T09:26:05.419Z,84.54
2023-03-25T09:28:37.477Z,86.04
2023-03-25T09:31:09.636Z,86.91
2023-03-25T09:33:41.732Z,87.90
2023-03-25T09:36:13.804Z,88.58
2023-03-25T09:38:46.008Z,90.31
2023-03-25T09:42:09.024Z,92.09
2023-03-25T09:45:14.580Z,90.98
2023-03-25T09:48:03.539Z,91.87
2023-03-25T09:50:38.007Z,93.00
2023-03-25T09:53:39.574Z,92.02
2023-03-25T09:56:21.799Z,92.56
2023-03-25T09:59:01.986Z,91.18
2023-03-25T10:01:55.502Z,90.89
2023-03-25T10:04:30.494Z,92.87
2023-03-25T10:07:23.650Z,94.41
2023-03-25T10:10:32.700Z,96.23
2023-03-25T10:13:27.811Z,96.64
2023-03-25T10:16:27.310Z,100.00
2023-03-25T10:19:15.550Z,100.00
2023-03-25T10:22:16.200Z,100.00
2023-03-25T10:25:05.417Z,100.00
2023-03-25T10:27:46.008Z,100.00
2023-03-25T10:30:39.035Z,100.00
2023-03-25T10:33:39.210Z,100.00
2023-03-25T10:36:19.353Z,100.00
2023-03-25T10:38:55.313Z,100.00
2023-03-25T10:41:37.963Z,100.00
2023-03-25T10:44:11.525Z,100.00
2023-03-25T10:46:55.206Z,100.00
2023-03-25T10:49:30.877Z,100.00
2023-03-25T10:52:04.291Z,100.00
2023-03-25T10:54:48.507Z,100.00
2023-03-25T10:57:29.688Z,100.00
2023-03-25T11:00:31.896Z,100.00
2023-03-25T11:03:05.448Z,99.54
2023-03-25T11:05:37.542Z,95.77
2023-03-25T11:08:22.214Z,87.45
2023-03-25T11:10:57.980Z,85.30
2023-03-25T11:13:32.264Z,85.85
2023-03-25T11:16:04.987Z,87.75
2023-03-25T11:18:40.961Z,87.71
2023-03-25T11:21:14.562Z,88.50
2023-03-25T11:23:52.190Z,87.85
2023-03-25T11:26:39.856Z,90.50
2023-03-25T11:29:21.958Z,93.55
2023-03-25T11:32:06.050Z,90.43
2023-03-25T11:34:42.540Z,89.66
2023-03-25T11:37:22.534Z,91.76
2023-03-25T11:39:56.191Z,90.21
2023-03-25T11:42:42.892Z,88.96
2023-03-25T11:45:35.880Z,84.00
2023-03-25T11:48:23.441Z,85.90
2023-03-25T11:51:02.524Z,83.26
2023-03-25T11:53:35.011Z,82.56
2023-03-25T11:56:11.533Z,80.44
2023-03-25T11:58:44.159Z,78.01
2023-03-25T12:01:48.337Z,80.50
2023-03-25T12:04:25.307Z,79.47
2023-03-25T12:07:15.756Z,70.51
2023-03-25T12:09:59.938Z,72.86
2023-03-25T12:12:59.136Z,73.95
2023-03-25T12:15:58.945Z,78.48
2023-03-25T12:18:54.898Z,80.30
2023-03-25T12:21:38.982Z,75.63
2023-03-25T12:24:58.025Z,77.76
2023-03-25T12:28:05.541Z,79.80
2023-03-25T12:30:55.561Z,80.86
2023-03-25T12:33:43.237Z,84.59
2023-03-25T12:36:18.224Z,93.78
2023-03-25T12:39:42.278Z,100.00
2023-03-25T12:42:26.330Z,100.00
2023-03-25T12:45:07.533Z,100.00
2023-03-25T12:47:44.138Z,100.00
2023-03-25T12:50:42.140Z,100.00
2023-03-25T12:53:22.103Z,100.00
2023-03-25T12:56:14.341Z,100.00
2023-03-25T12:59:08.378Z,100.00
2023-03-25T13:02:12.281Z,100.00
2023-03-25T13:05:14.981Z,90.23
2023-03-25T13:07:54.705Z,86.73
2023-03-25T13:10:34.079Z,86.85
2023-03-25T13:13:16.656Z,90.61
2023-03-25T13:16:19.923Z,92.35
2023-03-25T13:19:08.453Z,94.73
2023-03-25T13:21:46.677Z,95.51
2023-03-25T13:24:34.923Z,95.54
2023-03-25T13:27:13.454Z,98.98
2023-03-25T13:29:57.886Z,97.99
2023-03-25T13:32:51.106Z,95.47
2023-03-25T13:35:44.675Z,91.86
2023-03-25T13:38:27.201Z,86.65
2023-03-25T13:41:17.044Z,85.82
2023-03-25T13:44:07.989Z,83.31
2023-03-25T13:47:13.181Z,82.00
2023-03-25T13:49:56.596Z,82.58
2023-03-25T13:52:39.331Z,85.69
2023-03-25T13:55:18.816Z,86.17
2023-03-25T13:58:26.548Z,87.37
2023-03-25T14:01:29.259Z,85.66
2023-03-25T14:04:18.088Z,85.61
2023-03-25T14:07:27.783Z,86.69
2023-03-25T14:11:06.316Z,88.77
2023-03-25T14:13:45.019Z,92.28
2023-03-25T14:16:23.068Z,94.58
2023-03-25T14:19:11.802Z,98.93
2023-03-25T14:21:49.203Z,100.00
2023-03-25T14:24:28.983Z,100.00
2023-03-25T14:27:22.927Z,100.00
2023-03-25T14:30:06.403Z,100.00
2023-03-25T14:32:41.763Z,100.00
2023-03-25T14:35:35.767Z,99.02
2023-03-25T14:38:08.087Z,98.60
2023-03-25T14:40:58.990Z,98.68
2023-03-25T14:43:48.098Z,100.00
2023-03-25T14:46:26.411Z,100.00
2023-03-25T14:49:06.038Z,100.00
2023-03-25T14:51:42.876Z,100.00
2023-03-25T14:54:36.792Z,100.00
2023-03-25T14:57:19.570Z,100.00
2023-03-25T15:00:14.017Z,100.00
2023-03-25T15:02:53.902Z,100.00
2023-03-25T15:05:29.297Z,100.00
2023-03-25T15:08:26.112Z,100.00
2023-03-25T15:11:17.209Z,100.00
2023-03-25T15:13:56.686Z,100.00
2023-03-25T15:16:39.651Z,100.00
2023-03-25T15:19:14.013Z,100.00
2023-03-25T15:22:11.254Z,100.00
2023-03-25T15:24:51.341Z,100.00
2023-03-25T15:28:06.471Z,100.00
2023-03-25T15:31:25.356Z,100.00
2023-03-25T15:34:12.783Z,100.00
2023-03-25T15:37:05.866Z,100.00
2023-03-25T15:40:01.096Z,100.00
2023-03-25T15:42:59.657Z,100.00
2023-03-25T15:46:01.308Z,100.00
2023-03-25T15:49:13.875Z,100.00
2023-03-25T15:52:07.292Z,100.00
2023-03-25T15:55:07.544Z,100.00
2023-03-25T15:57:55.008Z,100.00
2023-03-25T16:00:42.540Z,99.91
2023-03-25T16:03:20.880Z,100.00
2023-03-25T16:06:00.669Z,99.48
2023-03-25T16:08:38.272Z,100.00
2023-03-25T16:11:26.822Z,100.00
2023-03-25T16:14:17.596Z,100.00
2023-03-25T16:16:56.811Z,100.00
2023-03-25T16:19:54.117Z,100.00
2023-03-25T16:22:30.146Z,100.00
2023-03-25T16:25:12.662Z,100.00
2023-03-25T16:27:48.145Z,100.00
2023-03-25T16:30:26.488Z,100.00
2023-03-25T16:33:09.747Z,100.00
2023-03-25T16:35:55.315Z,100.00
2023-03-25T16:38:28.244Z,100.00
2023-03-25T16:41:09.729Z,100.00
2023-03-25T16:43:42.795Z,100.00
2023-03-25T16:46:16.495Z,100.00
2023-03-25T16:48:54.168Z,100.00
2023-03-25T16:51:32.251Z,100.00
2023-03-25T16:54:22.739Z,100.00
2023-03-25T16:56:55.476Z,100.00
2023-03-25T16:59:35.446Z,100.00
2023-03-25T17:02:23.491Z,100.00
2023-03-25T17:05:13.167Z,100.00
2023-03-25T17:07:56.801Z,100.00
2023-03-25T17:10:32.844Z,100.00
2023-03-25T17:13:11.599Z,100.00
2023-03-25T17:15:48.715Z,100.00
2023-03-25T17:18:28.120Z,100.00
2023-03-25T17:21:01.853Z,100.00
2023-03-25T17:23:46.492Z,100.00
2023-03-25T17:26:21.214Z,100.00
2023-03-25T17:29:00.118Z,100.00
2023-03-25T17:31:41.389Z,100.00
2023-03-25T17:34:15.765Z,100.00
2023-03-25T17:36:50.580Z,100.00
2023-03-25T17:39:30.242Z,100.00
2023-03-25T17:42:06.541Z,100.00
2023-03-25T17:44:43.107Z,100.00
2023-03-25T17:47:17.724Z,100.00
2023-03-25T17:49:52.284Z,100.00
2023-03-25T17:52:24.461Z,100.00
2023-03-25T17:54:56.589Z,100.00
2023-03-25T17:57:28.622Z,100.00
2023-03-25T18:00:00.787Z,100.00
2023-03-25T18:02:32.924Z,100.00
2023-03-25T18:05:08.329Z,100.00
2023-03-25T18:07:40.565Z,100.00
2023-03-25T18:10:19.771Z,100.00
2023-03-25T18:12:51.850Z,100.00
2023-03-25T18:15:24.165Z,100.00
2023-03-25T18:17:56.749Z,100.00
2023-03-25T18:20:33.674Z,100.00
2023-03-25T18:23:06.600Z,100.00
2023-03-25T18:25:39.929Z,100.00
2023-03-25T18:28:13.612Z,100.00
2023-03-25T18:31:01.403Z,100.00
2023-03-25T18:33:35.256Z,100.00
2023-03-25T18:36:07.838Z,100.00
2023-03-25T18:38:39.989Z,100.00
2023-03-25T18:41:17.602Z,100.00
2023-03-25T18:43:49.855Z,100.00
2023-03-25T18:46:22.114Z,100.00
2023-03-25T18:48:56.337Z,100.00
2023-03-25T18:51:29.607Z,100.00
2023-03-25T18:54:01.743Z,100.00
2023-03-25T18:56:33.967Z,100.00
2023-03-25T18:59:06.142Z,100.00
2023-03-25T19:01:38.297Z,100.00
2023-03-25T19:04:10.537Z,100.00
2023-03-25T19:06:43.239Z,100.00
2023-03-25T19:09:22.922Z,100.00
2023-03-25T19:11:55.011Z,100.00
2023-03-25T19:14:27.113Z,100.00
2023-03-25T19:17:04.008Z,100.00
2023-03-25T19:19:36.839Z,100.00
2023-03-25T19:22:09.997Z,100.00
2023-03-25T19:24:45.032Z,100.00
2023-03-25T19:27:17.140Z,100.00
2023-03-25T19:29:50.343Z,100.00
2023-03-25T19:32:43.009Z,100.00
2023-03-25T19:35:17.801Z,100.00
2023-03-25T19:37:53.332Z,100.00
2023-03-25T19:40:28.310Z,100.00
2023-03-25T19:43:02.569Z,100.00
2023-03-25T19:45:35.154Z,100.00
2023-03-25T19:48:07.360Z,100.00
2023-03-25T19:50:41.306Z,100.00
2023-03-25T19:53:14.526Z,100.00
2023-03-25T19:55:46.676Z,100.00
2023-03-25T19:58:20.490Z,100.00
2023-03-25T20:00:53.215Z,100.00
2023-03-25T20:03:26.578Z,100.00
2023-03-25T20:06:03.364Z,100.00
2023-03-25T20:08:35.509Z,100.00
2023-03-25T20:11:12.271Z,100.00
2023-03-25T20:13:44.727Z,100.00
2023-03-25T20:16:17.016Z,100.00
2023-03-25T20:18:49.543Z,100.00
2023-03-25T20:21:23.189Z,100.00
2023-03-25T20:23:55.355Z,100.00
2023-03-25T20:26:27.630Z,100.00
2023-03-25T20:28:59.837Z,100.00
2023-03-25T20:31:33.523Z,100.00
2023-03-25T20:34:06.680Z,100.00
2023-03-25T20:36:38.897Z,100.00
2023-03-25T20:39:11.552Z,100.00
2023-03-25T20:41:43.739Z,100.00
2023-03-25T20:44:15.951Z,100.00
2023-03-25T20:46:49.954Z,100.00
2023-03-25T20:49:22.403Z,100.00
2023-03-25T20:51:56.228Z,100.00
2023-03-25T20:54:28.742Z,100.00
2023-03-25T20:57:00.896Z,100.00
2023-03-25T20:59:35.862Z,100.00
2023-03-25T21:02:10.341Z,100.00
2023-03-25T21:04:43.218Z,100.00
2023-03-25T21:07:19.481Z,100.00
2023-03-25T21:09:51.594Z,100.00
2023-03-25T21:12:32.837Z,100.00
2023-03-25T21:15:17.176Z,100.00
2023-03-25T21:17:49.316Z,100.00
2023-03-25T21:20:27.221Z,100.00
2023-03-25T21:22:59.457Z,100.00
2023-03-25T21:25:35.283Z,100.00
2023-03-25T21:28:08.238Z,100.00
2023-03-25T21:30:40.773Z,100.00
2023-03-25T21:33:15.790Z,100.00
2023-03-25T21:35:53.957Z,100.00
2023-03-25T21:38:29.133Z,100.00
2023-03-25T21:41:04.629Z,100.00
2023-03-25T21:43:42.636Z,100.00
2023-03-25T21:46:15.658Z,100.00
2023-03-25T21:48:48.759Z,100.00
2023-03-25T21:51:21.606Z,100.00
2023-03-25T21:53:53.806Z,100.00
2023-03-25T21:56:28.061Z,100.00
2023-03-25T21:59:03.592Z,100.00
2023-03-25T22:01:36.022Z,100.00
2023-03-25T22:04:08.942Z,100.00
2023-03-25T22:06:41.311Z,100.00
2023-03-25T22:09:13.507Z,100.00
2023-03-25T22:11:45.631Z,100.00
2023-03-25T22:14:17.848Z,100.00
2023-03-25T22:16:49.992Z,100.00
2023-03-25T22:19:24.081Z,100.00
2023-03-25T22:21:56.775Z,100.00
2023-03-25T22:24:30.530Z,100.00
2023-03-25T22:27:03.195Z,100.00
2023-03-25T22:29:35.466Z,100.00
2023-03-25T22:32:07.557Z,100.00
2023-03-25T22:34:40.365Z,100.00
2023-03-25T22:37:12.516Z,100.00
2023-03-25T22:39:44.762Z,100.00
2023-03-25T22:42:16.839Z,100.00
2023-03-25T22:44:49.247Z,100.00
2023-03-25T22:47:21.342Z,100.00
2023-03-25T22:49:53.505Z,100.00
2023-03-25T22:52:25.612Z,100.00
2023-03-25T22:54:57.704Z,100.00
2023-03-25T22:57:29.886Z,100.00
2023-03-25T23:00:02.785Z,100.00
2023-03-25T23:02:34.916Z,100.00
2023-03-25T23:05:08.257Z,100.00
2023-03-25T23:07:40.529Z,100.00
2023-03-25T23:10:13.955Z,100.00
2023-03-25T23:12:46.134Z,100.00
2023-03-25T23:15:18.361Z,100.00
2023-03-25T23:17:50.480Z,100.00
2023-03-25T23:20:22.606Z,100.00
2023-03-25T23:22:54.867Z,100.00
2023-03-25T23:25:26.917Z,100.00
2023-03-25T23:27:58.948Z,100.00
2023-03-25T23:30:31.131Z,100.00
2023-03-25T23:33:03.223Z,100.00
2023-03-25T23:35:35.644Z,100.00
2023-03-25T23:38:08.239Z,100.00
2023-03-25T23:40:40.643Z,100.00
2023-03-25T23:43:12.770Z,100.00
2023-03-25T23:45:44.914Z,100.00
2023-03-25T23:48:16.980Z,100.00
2023-03-25T23:50:49.513Z,100.00
2023-03-25T23:53:22.821Z,100.00
2023-03-25T23:55:56.123Z,100.00
2023-03-25T23:58:28.505Z,100.00
